Clipper 3 — ZMT3984 — position and weather

sailwx.info

Track history (hours):
 
Tides and Currents Weather Stations Pressure Air Temp Water Temp Dewpoint Dewpoint Depression Visibility Wind Speed Wind Dir Waves Ship Positions

Clipper 3

Last reported at 2015-Jan-28 20:16 UTC. Time now 2015-Jan-28 22:18 UTC.
Position S 36°51' E 174°54'.

Length 14 m; draft 1 m.

Type: High speed craft. MMSI: 512000741.

Date/timePositionNaut miles runAvg speedWind from/ knotsBaromVisibWave heightAir tempDewpointWater temp
2015-Jan-28 20:16S 36°51' E 174°54'3 4.5
2015-Jan-28 19:33S 36°50' E 174°50'3 3.2
2015-Jan-28 18:33S 36°50' E 174°46'6 0.5
2015-Jan-28 05:18S 36°51' E 174°54'6 3.7
2015-Jan-28 03:34S 36°51' E 174°46'6 0.9
2015-Jan-27 20:07S 36°51' E 174°54'3 6.3
2015-Jan-27 19:33S 36°50' E 174°50'3 2.9
2015-Jan-27 18:33S 36°50' E 174°46'6 0.5
2015-Jan-27 05:17S 36°51' E 174°54'0 0.7
2015-Jan-27 04:33S 36°51' E 174°55'7 7.0
2015-Jan-27 03:33S 36°51' E 174°46'6 2.6
2015-Jan-27 01:16S 36°51' E 174°53'0 0.0
2015-Jan-26 23:15S 36°51' E 174°53'0 0.0
2015-Jan-26 20:05S 36°51' E 174°53'3 6.1
2015-Jan-26 19:33S 36°50' E 174°49'3 2.6
2015-Jan-26 18:29S 36°51' E 174°46'10 0.8
2015-Jan-26 05:33S 36°48' E 174°59'1 1.1
2015-Jan-26 04:33S 36°47' E 174°59'1110.7
2015-Jan-26 03:33S 36°51' E 174°46'0 0.0
2015-Jan-26 02:31S 36°51' E 174°46'1111.1
2015-Jan-26 01:33S 36°47' E 174°58'1110.7
2015-Jan-26 00:34S 36°51' E 174°46'8 7.5
2015-Jan-25 23:34S 36°48' E 174°55'4 3.6
2015-Jan-25 22:33S 36°47' E 174°59'1111.2
2015-Jan-25 21:33S 36°51' E 174°46'1010.4
2015-Jan-25 20:33S 36°48' E 174°59'1 0.1
2015-Jan-25 05:33S 36°47' E 174°59'0 0.2
2015-Jan-25 04:33S 36°47' E 174°59'1111.2
2015-Jan-25 03:33S 36°51' E 174°46'0 0.3
2015-Jan-25 02:07S 36°50' E 174°46'1120.2
2015-Jan-25 01:33S 36°47' E 174°59'1111.0
2015-Jan-25 00:33S 36°51' E 174°46'7 6.9
2015-Jan-24 23:34S 36°48' E 174°54'5 3.5
2015-Jan-24 22:15S 36°47' E 174°60'1116.7
2015-Jan-24 21:33S 36°51' E 174°46'1110.6
2015-Jan-24 20:33S 36°48' E 174°59'1 0.1
2015-Jan-24 04:33S 36°47' E 174°59'1111.2
2015-Jan-24 03:34S 36°51' E 174°46'0 0.0
2015-Jan-24 02:33S 36°51' E 174°46'1111.2
2015-Jan-24 01:33S 36°47' E 174°59'1111.3
2015-Jan-24 00:34S 36°51' E 174°46'8 7.7
2015-Jan-23 23:33S 36°48' E 174°55'4 3.5
2015-Jan-23 22:33S 36°47' E 174°59'1111.3
2015-Jan-23 21:34S 36°51' E 174°46'1110.7
2015-Jan-23 20:33S 36°47' E 174°59'5 0.3
2015-Jan-23 05:18S 36°51' E 174°54'6 3.7
2015-Jan-23 03:33S 36°51' E 174°46'6 2.8
2015-Jan-23 01:17S 36°50' E 174°54'0 0.0
2015-Jan-22 23:18S 36°51' E 174°54'1 0.3
2015-Jan-22 20:05S 36°51' E 174°53'3 5.3
2015-Jan-22 19:33S 36°50' E 174°49'3 2.7
2015-Jan-22 18:33S 36°50' E 174°46'6 0.5
2015-Jan-22 05:19S 36°51' E 174°54'6 3.7
2015-Jan-22 03:34S 36°51' E 174°46'6 2.6
2015-Jan-22 01:16S 36°51' E 174°54'0 0.2
2015-Jan-21 23:19S 36°50' E 174°54'613.5
2015-Jan-21 22:50S 36°50' E 174°46'219.7
2015-Jan-21 22:44S 36°51' E 174°48'4 1.6
2015-Jan-21 20:06S 36°51' E 174°54'3 5.8
2015-Jan-21 19:34S 36°50' E 174°50'3 2.9
2015-Jan-21 18:33S 36°50' E 174°46'6 0.5
2015-Jan-21 05:17S 36°51' E 174°54'6 3.7
2015-Jan-21 03:34S 36°51' E 174°46'6 2.6
2015-Jan-21 01:16S 36°51' E 174°53'0 0.0
2015-Jan-20 23:17S 36°51' E 174°53'0 0.0
2015-Jan-20 20:06S 36°51' E 174°53'3 5.6
2015-Jan-20 19:34S 36°50' E 174°50'3 2.9
2015-Jan-20 18:32S 36°51' E 174°46'6 0.5
2015-Jan-20 05:18S 36°51' E 174°54'6 3.5
2015-Jan-20 03:33S 36°51' E 174°46'6 2.8
2015-Jan-20 01:17S 36°51' E 174°54'0 0.0
2015-Jan-19 23:17S 36°51' E 174°54'0 0.0
2015-Jan-19 20:05S 36°51' E 174°54'3 6.6
2015-Jan-19 19:34S 36°50' E 174°50'2 2.4
2015-Jan-19 18:33S 36°50' E 174°47'6 0.5
2015-Jan-19 05:16S 36°51' E 174°54'6 3.8
2015-Jan-19 03:34S 36°51' E 174°46'7 2.9
2015-Jan-19 01:17S 36°51' E 174°54'0 0.0
2015-Jan-18 23:17S 36°51' E 174°54'  
Track history (hours):
 
Tides and Currents Weather Stations Pressure Air Temp Water Temp Dewpoint Dewpoint Depression Visibility Wind Speed Wind Dir Waves Ship Positions

Clipper 3

Last reported at 2015-Jan-28 20:16 UTC. Time now 2015-Jan-28 22:18 UTC.
Position S 36°51' E 174°54'.

Length 14 m; draft 1 m.

Type: High speed craft. MMSI: 512000741.

Date/timePositionNaut miles runAvg speedWind from/ knotsBaromVisibWave heightAir tempDewpointWater temp
2015-Jan-28 20:16S 36°51' E 174°54'3 4.5
2015-Jan-28 19:33S 36°50' E 174°50'3 3.2
2015-Jan-28 18:33S 36°50' E 174°46'6 0.5
2015-Jan-28 05:18S 36°51' E 174°54'6 3.7
2015-Jan-28 03:34S 36°51' E 174°46'6 0.9
2015-Jan-27 20:07S 36°51' E 174°54'3 6.3
2015-Jan-27 19:33S 36°50' E 174°50'3 2.9
2015-Jan-27 18:33S 36°50' E 174°46'6 0.5
2015-Jan-27 05:17S 36°51' E 174°54'0 0.7
2015-Jan-27 04:33S 36°51' E 174°55'7 7.0
2015-Jan-27 03:33S 36°51' E 174°46'6 2.6
2015-Jan-27 01:16S 36°51' E 174°53'0 0.0
2015-Jan-26 23:15S 36°51' E 174°53'0 0.0
2015-Jan-26 20:05S 36°51' E 174°53'3 6.1
2015-Jan-26 19:33S 36°50' E 174°49'3 2.6
2015-Jan-26 18:29S 36°51' E 174°46'10 0.8
2015-Jan-26 05:33S 36°48' E 174°59'1 1.1
2015-Jan-26 04:33S 36°47' E 174°59'1110.7
2015-Jan-26 03:33S 36°51' E 174°46'0 0.0
2015-Jan-26 02:31S 36°51' E 174°46'1111.1
2015-Jan-26 01:33S 36°47' E 174°58'1110.7
2015-Jan-26 00:34S 36°51' E 174°46'8 7.5
2015-Jan-25 23:34S 36°48' E 174°55'4 3.6
2015-Jan-25 22:33S 36°47' E 174°59'1111.2
2015-Jan-25 21:33S 36°51' E 174°46'1010.4
2015-Jan-25 20:33S 36°48' E 174°59'1 0.1
2015-Jan-25 05:33S 36°47' E 174°59'0 0.2
2015-Jan-25 04:33S 36°47' E 174°59'1111.2
2015-Jan-25 03:33S 36°51' E 174°46'0 0.3
2015-Jan-25 02:07S 36°50' E 174°46'1120.2
2015-Jan-25 01:33S 36°47' E 174°59'1111.0
2015-Jan-25 00:33S 36°51' E 174°46'7 6.9
2015-Jan-24 23:34S 36°48' E 174°54'5 3.5
2015-Jan-24 22:15S 36°47' E 174°60'1116.7
2015-Jan-24 21:33S 36°51' E 174°46'1110.6
2015-Jan-24 20:33S 36°48' E 174°59'1 0.1
2015-Jan-24 04:33S 36°47' E 174°59'1111.2
2015-Jan-24 03:34S 36°51' E 174°46'0 0.0
2015-Jan-24 02:33S 36°51' E 174°46'1111.2
2015-Jan-24 01:33S 36°47' E 174°59'1111.3
2015-Jan-24 00:34S 36°51' E 174°46'8 7.7
2015-Jan-23 23:33S 36°48' E 174°55'4 3.5
2015-Jan-23 22:33S 36°47' E 174°59'1111.3
2015-Jan-23 21:34S 36°51' E 174°46'1110.7
2015-Jan-23 20:33S 36°47' E 174°59'5 0.3
2015-Jan-23 05:18S 36°51' E 174°54'6 3.7
2015-Jan-23 03:33S 36°51' E 174°46'6 2.8
2015-Jan-23 01:17S 36°50' E 174°54'0 0.0
2015-Jan-22 23:18S 36°51' E 174°54'1 0.3
2015-Jan-22 20:05S 36°51' E 174°53'3 5.3
2015-Jan-22 19:33S 36°50' E 174°49'3 2.7
2015-Jan-22 18:33S 36°50' E 174°46'6 0.5
2015-Jan-22 05:19S 36°51' E 174°54'6 3.7
2015-Jan-22 03:34S 36°51' E 174°46'6 2.6
2015-Jan-22 01:16S 36°51' E 174°54'0 0.2
2015-Jan-21 23:19S 36°50' E 174°54'613.5
2015-Jan-21 22:50S 36°50' E 174°46'219.7
2015-Jan-21 22:44S 36°51' E 174°48'4 1.6
2015-Jan-21 20:06S 36°51' E 174°54'3 5.8
2015-Jan-21 19:34S 36°50' E 174°50'3 2.9
2015-Jan-21 18:33S 36°50' E 174°46'6 0.5
2015-Jan-21 05:17S 36°51' E 174°54'6 3.7
2015-Jan-21 03:34S 36°51' E 174°46'6 2.6
2015-Jan-21 01:16S 36°51' E 174°53'0 0.0
2015-Jan-20 23:17S 36°51' E 174°53'0 0.0
2015-Jan-20 20:06S 36°51' E 174°53'3 5.6
2015-Jan-20 19:34S 36°50' E 174°50'3 2.9
2015-Jan-20 18:32S 36°51' E 174°46'6 0.5
2015-Jan-20 05:18S 36°51' E 174°54'6 3.5
2015-Jan-20 03:33S 36°51' E 174°46'6 2.8
2015-Jan-20 01:17S 36°51' E 174°54'0 0.0
2015-Jan-19 23:17S 36°51' E 174°54'0 0.0
2015-Jan-19 20:05S 36°51' E 174°54'3 6.6
2015-Jan-19 19:34S 36°50' E 174°50'2 2.4
2015-Jan-19 18:33S 36°50' E 174°47'6 0.5
2015-Jan-19 05:16S 36°51' E 174°54'6 3.8
2015-Jan-19 03:34S 36°51' E 174°46'7 2.9
2015-Jan-19 01:17S 36°51' E 174°54'0 0.0
2015-Jan-18 23:17S 36°51' E 174°54'  

Dump ship's entire track history